»·PEaware :: N915MM KGCN-KHII

N915MM :: KGCN-KHII

FLIGHT INFORMATION

Flight Status: Arrived
Operator: Privately registered:
United States
More flights under this callsign
Pilot: Tyler S. (27221)
Aircraft: SOCATA TBM-900
(TBM9)
More flights by this aircraft type
Origin: KGCN Grand Canyon Natl Park
United States
Destination: KHII Lake Havasu City
United States
More flights between these airports :: More routes between these airports
Route:
File this flight plan on PilotEdge
Remarks:
Altitude:
(Current/Filed)
14,500ft
Speed:
(Current/Filed)
280kts
Departed: 26-Oct-20 05:25 PM
Arrived: 26-Oct-20 05:58 PM
Distance/Time
Traveled:
137nm/0:33
Distance/Time
To Go:
Arrived

Flight Plot

Page will automatically refresh every two minutes.


Map Options




Map Legend


Flown Route
Filed Route
Departure Airport
Arrival Airport
Navaid (VOR, NDB)
Fix

Horizontal Profiles

Position Reports

Time Latitude Longitude Heading Altitude Ground
Speed
26-Oct-20 17:06 35.955627 -112.140811 221 6607ft 0kts
26-Oct-20 17:07 35.955627 -112.140811 221 6607ft 0kts
26-Oct-20 17:08 35.955627 -112.140811 221 6607ft 0kts
26-Oct-20 17:09 35.955627 -112.140811 221 6607ft 0kts
26-Oct-20 17:10 35.955627 -112.140811 221 6607ft 0kts
26-Oct-20 17:11 35.955627 -112.140811 221 6607ft 0kts
26-Oct-20 17:12 35.955627 -112.140811 221 6607ft 0kts
26-Oct-20 17:13 35.955627 -112.140811 221 6607ft 0kts
26-Oct-20 17:14 35.955627 -112.140811 221 6607ft 0kts
26-Oct-20 17:15 35.955627 -112.140811 221 6607ft 0kts
26-Oct-20 17:16 35.955627 -112.140811 221 6607ft 0kts
26-Oct-20 17:17 35.955626 -112.140811 221 6607ft 0kts
26-Oct-20 17:18 35.955626 -112.140811 221 6607ft 0kts
26-Oct-20 17:19 35.955306 -112.142077 220 6607ft 14kts
26-Oct-20 17:20 35.950506 -112.147138 220 6607ft 25kts
26-Oct-20 17:21 35.944640 -112.153356 220 6607ft 25kts
26-Oct-20 17:22 35.942501 -112.155828 274 6607ft 0kts
26-Oct-20 17:23 35.942507 -112.155868 285 6607ft 3kts
26-Oct-20 17:24 35.954264 -112.144585 41 6906ft 121kts
26-Oct-20 17:25 35.979621 -112.151911 240 9359ft 184kts
26-Oct-20 17:26 35.944466 -112.206767 234 11532ft 215kts
26-Oct-20 17:27 35.904975 -112.266672 234 13850ft 223kts
26-Oct-20 17:28 35.860233 -112.335518 234 14513ft 282kts
26-Oct-20 17:29 35.803582 -112.412286 229 14501ft 300kts
26-Oct-20 17:30 35.745667 -112.489448 229 14504ft 304kts
26-Oct-20 17:31 35.693140 -112.570824 257 14493ft 292kts
26-Oct-20 17:32 35.641868 -112.656410 236 14498ft 302kts
26-Oct-20 17:33 35.590295 -112.740295 236 14497ft 301kts
26-Oct-20 17:34 35.538851 -112.823780 236 14499ft 300kts
26-Oct-20 17:35 35.487036 -112.907650 236 14507ft 301kts
26-Oct-20 17:36 35.434493 -112.992532 236 14503ft 302kts
26-Oct-20 17:37 35.382298 -113.076614 237 14495ft 302kts
26-Oct-20 17:38 35.329353 -113.161723 237 14491ft 302kts
26-Oct-20 17:39 35.276236 -113.246886 237 14495ft 302kts
26-Oct-20 17:40 35.223349 -113.331457 237 14494ft 303kts
26-Oct-20 17:41 35.170107 -113.416427 237 14495ft 303kts
26-Oct-20 17:42 35.116290 -113.502067 238 14495ft 303kts
26-Oct-20 17:43 35.062634 -113.587280 238 14496ft 303kts
26-Oct-20 17:44 35.009132 -113.672028 237 14495ft 303kts
26-Oct-20 17:45 34.955171 -113.757307 237 13720ft 304kts
26-Oct-20 17:46 34.900171 -113.843995 237 12693ft 302kts
26-Oct-20 17:47 34.847623 -113.926628 236 11642ft 300kts
26-Oct-20 17:48 34.794749 -114.009509 236 10581ft 297kts
26-Oct-20 17:49 34.741693 -114.092598 237 9515ft 295kts
26-Oct-20 17:50 34.689171 -114.174598 237 8510ft 290kts
26-Oct-20 17:51 34.638960 -114.252836 237 8500ft 269kts
26-Oct-20 17:52 34.587777 -114.299016 200 6879ft 218kts
26-Oct-20 17:53 34.525545 -114.298651 179 3770ft 238kts
26-Oct-20 17:54 34.525770 -114.327197 339 2130ft 102kts
26-Oct-20 17:55 34.547443 -114.341757 330 1325ft 69kts
26-Oct-20 17:56 34.564757 -114.353792 330 783ft 48kts
26-Oct-20 17:57 34.564648 -114.355014 150 783ft 17kts
26-Oct-20 17:59 34.561141 -114.352813 13 783ft 2kts
26-Oct-20 18:00 34.561160 -114.352812 355 783ft 0kts

Navigation Log

Ident Type
Flight plan parsing failed, navigation log unavailable